createdAt,value
2023-01-01T19:33:52.263Z,12.40
2023-01-01T19:36:19.125Z,12.40
2023-01-01T19:38:45.853Z,12.50
2023-01-01T19:41:12.464Z,12.50
2023-01-01T19:43:39.168Z,12.50
2023-01-01T19:46:05.961Z,12.50
2023-01-01T19:51:08.071Z,12.50
2023-01-01T19:53:34.746Z,12.50
2023-01-01T19:56:01.392Z,12.50
2023-01-01T19:58:29.137Z,12.50
2023-01-01T20:00:55.848Z,12.40
2023-01-01T20:09:00.262Z,12.60
2023-01-01T20:11:29.605Z,12.60
2023-01-01T20:13:56.321Z,12.70
2023-01-01T20:16:23.096Z,12.70
2023-01-01T20:18:50.111Z,12.80
2023-01-01T20:29:38.809Z,12.80
2023-01-01T20:32:06.633Z,12.80
2023-01-01T20:34:33.339Z,12.80
2023-01-01T20:37:20.058Z,12.80
2023-01-01T20:39:48.096Z,12.90
2023-01-01T20:44:52.684Z,13.00
2023-01-01T20:47:20.533Z,13.00
2023-01-01T20:49:47.187Z,13.00
2023-01-01T20:52:14.696Z,13.00
2023-01-01T20:54:41.573Z,13.10
2023-01-01T21:02:36.013Z,13.30
2023-01-01T21:05:04.653Z,13.40
2023-01-01T21:07:31.343Z,13.40
2023-01-01T21:09:58.068Z,13.40
2023-01-01T21:12:32.743Z,13.50
2023-01-01T21:17:48.709Z,13.50
2023-01-01T21:20:15.348Z,13.50
2023-01-01T21:22:42.165Z,13.60
2023-01-01T21:25:53.111Z,13.60
2023-01-01T21:28:21.229Z,13.50
2023-01-01T21:30:53.436Z,13.70
2023-01-01T21:44:11.913Z,13.70
2023-01-01T21:46:44.359Z,13.70
2023-01-01T21:49:18.828Z,13.70
2023-01-01T21:51:57.042Z,13.70
2023-01-01T21:54:44.630Z,13.70
2023-01-01T21:57:24.411Z,13.70
2023-01-01T21:59:53.744Z,13.80
2023-01-01T22:02:31.560Z,13.80
2023-01-01T22:05:00.236Z,13.80
2023-01-01T22:10:20.500Z,13.80
2023-01-01T22:15:44.337Z,13.80
2023-01-01T22:18:26.238Z,13.80
2023-01-01T22:20:54.741Z,13.80
2023-01-01T22:23:34.098Z,13.80
2023-01-01T22:26:04.265Z,13.90
2023-01-01T22:28:38.567Z,13.90
2023-01-01T22:31:05.543Z,13.90
2023-01-01T22:33:43.078Z,13.90
2023-01-01T22:41:34.969Z,14.00
2023-01-01T22:44:03.550Z,14.00
2023-01-01T22:46:36.288Z,14.00
2023-01-01T22:49:13.281Z,14.00
2023-01-01T22:51:42.517Z,14.00
2023-01-01T22:54:09.393Z,14.10
2023-01-01T22:56:36.069Z,14.00
2023-01-01T22:59:02.888Z,14.00
2023-01-01T23:01:29.597Z,14.00
2023-01-01T23:03:57.837Z,14.00
2023-01-01T23:06:24.622Z,14.10
2023-01-01T23:08:57.902Z,14.10
2023-01-01T23:11:24.609Z,14.20
2023-01-01T23:14:11.244Z,14.10
2023-01-01T23:16:38.102Z,14.20
2023-01-01T23:19:05.406Z,14.20
2023-01-01T23:21:32.628Z,14.20
2023-01-01T23:24:00.729Z,14.10
